Time;durP1;ratioP1;P1;durP2;ratioP2;P2;SDS_P1;SDS_P2;PMS_P1;PMS_P2;Temp;Humidity;BMP_temperature;BMP_pressure;BME280_temperature;BME280_humidity;BME280_pressure;Samples;Min_cycle;Max_cycle;Signal;HPM_P1;HPM_P2
2024/01/23 00:02:24;;;;;;;1.60;1.20;;;8.60;98.20;;;;;;5091567;28;20471;-77
2024/01/23 00:04:51;;;;;;;1.60;1.30;;;8.60;98.20;;;;;;5110022;27;20599;-76
2024/01/23 00:07:18;;;;;;;1.60;1.30;;;8.60;98.20;;;;;;5079423;28;20717;-77
2024/01/23 00:09:44;;;;;;;1.60;1.20;;;8.60;98.20;;;;;;5100437;28;21016;-77
2024/01/23 00:12:11;;;;;;;1.60;1.30;;;8.60;98.20;;;;;;5078924;28;20537;-77
2024/01/23 00:14:38;;;;;;;1.60;1.20;;;8.60;98.20;;;;;;5102548;28;20526;-77
2024/01/23 00:17:05;;;;;;;1.57;1.17;;;8.70;98.20;;;;;;5080139;28;20477;-77
2024/01/23 00:19:33;;;;;;;1.60;1.10;;;8.70;98.20;;;;;;5101375;28;20452;-79
2024/01/23 00:21:59;;;;;;;1.60;1.20;;;8.70;98.20;;;;;;5103893;27;20483;-77
2024/01/23 00:24:26;;;;;;;1.60;1.20;;;8.70;98.20;;;;;;5109827;27;20486;-77
2024/01/23 00:26:53;;;;;;;1.60;1.20;;;8.60;98.20;;;;;;5081176;28;20492;-77
2024/01/23 00:29:20;;;;;;;1.60;1.20;;;8.60;98.20;;;;;;5099715;28;20460;-77
2024/01/23 00:31:46;;;;;;;1.60;1.20;;;8.60;98.20;;;;;;5089869;28;20487;-77
2024/01/23 00:34:13;;;;;;;1.60;1.10;;;8.60;98.20;;;;;;5102699;28;20475;-78
2024/01/23 00:36:42;;;;;;;1.60;1.20;;;8.60;98.20;;;;;;5092918;28;20483;-79
2024/01/23 00:39:09;;;;;;;1.57;1.10;;;8.50;98.20;;;;;;5107830;28;20460;-79
2024/01/23 00:41:36;;;;;;;1.60;1.40;;;8.40;98.20;;;;;;5095900;28;20480;-77
2024/01/23 00:44:02;;;;;;;1.60;1.20;;;8.40;98.20;;;;;;5106884;28;20454;-76
2024/01/23 00:46:29;;;;;;;1.60;1.20;;;8.30;98.20;;;;;;5095476;28;20474;-76
2024/01/23 00:48:56;;;;;;;1.60;1.30;;;8.20;98.20;;;;;;5117195;27;20452;-80
2024/01/23 00:51:23;;;;;;;1.60;1.17;;;8.10;98.20;;;;;;5100045;28;20472;-79
2024/01/23 00:53:51;;;;;;;1.60;1.20;;;8.00;98.20;;;;;;5104816;28;20488;-79
2024/01/23 00:56:18;;;;;;;1.60;1.20;;;7.90;98.20;;;;;;5100802;28;20518;-79
2024/01/23 00:58:44;;;;;;;1.60;1.30;;;7.80;98.20;;;;;;5109398;28;20466;-78
2024/01/23 01:01:12;;;;;;;1.60;1.20;;;7.70;98.20;;;;;;5091895;28;20484;-78
2024/01/23 01:03:38;;;;;;;1.70;1.30;;;7.70;98.20;;;;;;5106822;28;20471;-77
2024/01/23 01:06:05;;;;;;;1.60;1.30;;;7.70;98.20;;;;;;5092852;27;20455;-77
2024/01/23 01:08:32;;;;;;;1.60;1.20;;;7.60;98.20;;;;;;5091595;28;20460;-77
2024/01/23 01:11:00;;;;;;;1.60;1.30;;;7.60;98.20;;;;;;5093275;28;20455;-77
2024/01/23 01:13:27;;;;;;;1.60;1.20;;;7.60;98.20;;;;;;5089437;28;20520;-76
2024/01/23 01:15:54;;;;;;;1.70;1.40;;;7.60;98.20;;;;;;5094185;28;20516;-76
2024/01/23 01:18:21;;;;;;;1.60;1.20;;;7.70;98.20;;;;;;5105921;28;20558;-76
2024/01/23 01:20:48;;;;;;;1.60;1.10;;;7.70;98.20;;;;;;5095532;28;20473;-76
2024/01/23 01:23:16;;;;;;;1.60;1.40;;;7.70;98.20;;;;;;5073842;28;20579;-76
2024/01/23 01:25:45;;;;;;;1.60;1.40;;;7.70;98.20;;;;;;5083142;28;20484;-76
2024/01/23 01:28:14;;;;;;;1.60;1.30;;;7.70;98.20;;;;;;5057960;28;20512;-76
2024/01/23 01:30:41;;;;;;;1.60;1.30;;;7.70;98.20;;;;;;5086110;28;20979;-77
2024/01/23 01:33:08;;;;;;;1.60;1.30;;;7.70;98.20;;;;;;5091301;28;20487;-77
2024/01/23 01:35:34;;;;;;;1.60;1.30;;;7.70;98.20;;;;;;5088825;28;20480;-79
2024/01/23 01:38:01;;;;;;;1.60;1.20;;;7.70;98.20;;;;;;5076946;28;20480;-78
2024/01/23 01:40:28;;;;;;;1.60;1.23;;;7.70;98.20;;;;;;5085890;28;20471;-77
2024/01/23 01:42:55;;;;;;;1.60;1.20;;;7.70;98.20;;;;;;5073665;28;20570;-77
2024/01/23 01:45:23;;;;;;;1.60;1.20;;;7.70;98.20;;;;;;5087171;28;20464;-77
2024/01/23 01:47:50;;;;;;;1.60;1.30;;;7.60;98.20;;;;;;5074047;28;20489;-78
2024/01/23 01:50:17;;;;;;;1.60;1.20;;;7.60;98.20;;;;;;5085844;28;20463;-77
2024/01/23 01:52:44;;;;;;;1.60;1.30;;;7.60;98.20;;;;;;5068864;28;20576;-78
2024/01/23 01:55:11;;;;;;;1.60;1.27;;;7.60;98.20;;;;;;5085547;28;21037;-78
2024/01/23 01:57:40;;;;;;;1.60;1.17;;;7.60;98.20;;;;;;5074441;28;20494;-78
2024/01/23 02:00:08;;;;;;;1.70;1.50;;;7.60;98.20;;;;;;5085624;28;20465;-78
2024/01/23 02:02:40;;;;;;;1.60;1.30;;;7.60;98.20;;;;;;5073031;28;20487;-79
2024/01/23 02:05:07;;;;;;;1.60;1.20;;;7.60;98.20;;;;;;5085866;28;20511;-77
2024/01/23 02:07:34;;;;;;;1.60;1.27;;;7.60;98.20;;;;;;5074420;28;20487;-77
2024/01/23 02:10:01;;;;;;;1.60;1.30;;;7.60;98.20;;;;;;5076175;28;20464;-78
2024/01/23 02:12:27;;;;;;;1.60;1.40;;;7.60;98.20;;;;;;5078731;28;20485;-77
2024/01/23 02:14:54;;;;;;;1.60;1.30;;;7.60;98.20;;;;;;5078429;28;20487;-78
2024/01/23 02:17:21;;;;;;;1.60;1.20;;;7.60;98.20;;;;;;5081517;28;20484;-77
2024/01/23 02:19:50;;;;;;;1.60;1.30;;;7.60;98.20;;;;;;5080451;28;20478;-78
2024/01/23 02:22:17;;;;;;;1.60;1.20;;;7.60;98.20;;;;;;5091589;27;20482;-78
2024/01/23 02:24:45;;;;;;;1.70;1.50;;;7.60;98.20;;;;;;5106295;27;20460;-78
2024/01/23 02:27:12;;;;;;;1.60;1.20;;;7.60;98.20;;;;;;5089671;28;20480;-77
2024/01/23 02:29:40;;;;;;;1.63;1.30;;;7.60;98.20;;;;;;5100658;28;20467;-78
2024/01/23 02:32:08;;;;;;;1.60;1.20;;;7.70;98.20;;;;;;5096826;28;21009;-77
2024/01/23 02:34:35;;;;;;;1.60;1.30;;;7.70;98.20;;;;;;5105572;28;20483;-77
2024/01/23 02:37:02;;;;;;;1.63;1.47;;;7.70;98.20;;;;;;5092416;28;20486;-77
2024/01/23 02:39:29;;;;;;;1.60;1.20;;;7.60;98.20;;;;;;5100174;28;20513;-77
2024/01/23 02:41:57;;;;;;;7.57;7.13;;;7.70;98.20;;;;;;5096532;28;20531;-77
2024/01/23 02:44:24;;;;;;;1.67;1.40;;;7.70;98.20;;;;;;5102999;28;20484;-77
2024/01/23 02:46:52;;;;;;;1.60;1.30;;;7.70;98.20;;;;;;5092675;27;20479;-78
2024/01/23 02:49:18;;;;;;;1.60;1.30;;;7.70;98.20;;;;;;5101956;28;20725;-77
2024/01/23 02:51:45;;;;;;;1.60;1.30;;;7.70;98.20;;;;;;5097055;28;21010;-79
2024/01/23 02:54:12;;;;;;;1.60;1.30;;;7.70;98.20;;;;;;5102664;28;20862;-77
2024/01/23 02:56:39;;;;;;;1.60;1.10;;;7.70;98.20;;;;;;5102462;27;20478;-77
2024/01/23 02:59:07;;;;;;;1.63;1.30;;;7.70;98.20;;;;;;5114076;27;20963;-77
2024/01/23 03:01:34;;;;;;;1.60;1.20;;;7.70;98.20;;;;;;5097329;28;20507;-77
2024/01/23 03:04:00;;;;;;;1.60;1.30;;;7.70;98.20;;;;;;5104271;28;20459;-78
2024/01/23 03:06:27;;;;;;;1.60;1.33;;;7.60;98.20;;;;;;5096802;28;20479;-77
2024/01/23 03:08:54;;;;;;;1.60;1.30;;;7.60;98.20;;;;;;5099251;28;20464;-77
2024/01/23 03:11:20;;;;;;;1.60;1.20;;;7.60;98.20;;;;;;5098108;28;20510;-77
2024/01/23 03:13:47;;;;;;;1.60;1.30;;;7.50;98.20;;;;;;5106941;28;21004;-77
2024/01/23 03:16:15;;;;;;;1.60;1.40;;;7.50;98.20;;;;;;5098179;28;20479;-77
2024/01/23 03:18:42;;;;;;;1.60;1.20;;;7.50;98.20;;;;;;5104797;28;20965;-77
2024/01/23 03:21:09;;;;;;;1.60;1.20;;;7.40;98.20;;;;;;5097535;28;20577;-77
2024/01/23 03:23:36;;;;;;;1.60;1.20;;;7.40;98.20;;;;;;5106962;28;20486;-77
2024/01/23 03:26:02;;;;;;;1.60;1.20;;;7.40;98.20;;;;;;5095888;28;20451;-77
2024/01/23 03:28:29;;;;;;;1.60;1.30;;;7.40;98.20;;;;;;5102507;28;20460;-77
2024/01/23 03:30:56;;;;;;;1.60;1.30;;;7.30;98.20;;;;;;5101684;27;20934;-78
2024/01/23 03:33:24;;;;;;;1.60;1.20;;;7.30;98.20;;;;;;5103834;28;20482;-77
2024/01/23 03:35:51;;;;;;;1.60;1.20;;;7.30;98.20;;;;;;5094844;28;20491;-77
2024/01/23 03:38:18;;;;;;;1.60;1.17;;;7.30;98.20;;;;;;5103427;28;20819;-78
2024/01/23 03:40:45;;;;;;;1.60;1.30;;;7.20;98.20;;;;;;5106534;28;20460;-77
2024/01/23 03:43:12;;;;;;;1.67;1.30;;;7.20;98.20;;;;;;5077404;28;20474;-77
2024/01/23 03:45:39;;;;;;;1.67;1.30;;;7.10;98.20;;;;;;5108697;28;20457;-79
2024/01/23 03:48:06;;;;;;;1.60;1.30;;;7.10;98.20;;;;;;5092907;27;20466;-77
2024/01/23 03:50:34;;;;;;;1.60;1.30;;;7.10;98.20;;;;;;5106370;28;20455;-77
2024/01/23 03:53:01;;;;;;;1.60;1.20;;;7.00;98.20;;;;;;5092818;27;20478;-77
2024/01/23 03:55:28;;;;;;;1.60;1.30;;;7.00;98.20;;;;;;5109417;28;20487;-77
2024/01/23 03:57:55;;;;;;;1.70;1.30;;;6.90;98.20;;;;;;5092278;28;20853;-77
2024/01/23 04:00:24;;;;;;;1.67;1.30;;;6.90;98.20;;;;;;5107347;28;20451;-77
2024/01/23 04:02:51;;;;;;;1.63;1.30;;;6.90;98.20;;;;;;5087024;28;20538;-78
2024/01/23 04:05:17;;;;;;;1.60;1.20;;;6.80;98.20;;;;;;5108564;28;20452;-78
2024/01/23 04:07:47;;;;;;;1.60;1.20;;;6.80;98.20;;;;;;5092712;28;20472;-78
2024/01/23 04:10:14;;;;;;;1.70;1.50;;;6.70;98.20;;;;;;5102747;28;20479;-77
2024/01/23 04:12:41;;;;;;;1.60;1.27;;;6.70;98.20;;;;;;5078871;28;20488;-78
2024/01/23 04:15:09;;;;;;;1.60;1.23;;;6.70;98.20;;;;;;5104167;28;20499;-77
2024/01/23 04:17:36;;;;;;;1.60;1.30;;;6.70;98.20;;;;;;5077706;28;20484;-76
2024/01/23 04:20:02;;;;;;;1.70;1.47;;;6.70;98.20;;;;;;5102915;28;20456;-77
2024/01/23 04:22:29;;;;;;;1.67;1.30;;;6.60;98.20;;;;;;5099462;27;20478;-77
2024/01/23 04:24:57;;;;;;;1.60;1.30;;;6.60;98.20;;;;;;5109273;27;20462;-78
2024/01/23 04:27:24;;;;;;;1.60;1.40;;;6.60;98.20;;;;;;5080547;28;20492;-77
2024/01/23 04:29:51;;;;;;;1.60;1.30;;;6.60;98.20;;;;;;5102333;28;20463;-77
2024/01/23 04:32:19;;;;;;;1.60;1.20;;;6.60;98.20;;;;;;5091730;28;20507;-77
2024/01/23 04:34:48;;;;;;;1.67;1.37;;;6.50;98.20;;;;;;5111707;27;20556;-77
2024/01/23 04:37:15;;;;;;;1.63;1.30;;;6.50;98.20;;;;;;5081157;28;20888;-78
2024/01/23 04:39:42;;;;;;;1.70;1.40;;;6.50;98.20;;;;;;5099554;28;20969;-78
2024/01/23 04:42:10;;;;;;;1.60;1.30;;;6.50;98.20;;;;;;5082077;28;21021;-77
2024/01/23 04:44:37;;;;;;;1.60;1.20;;;6.40;98.20;;;;;;5099195;28;20472;-78
2024/01/23 04:47:03;;;;;;;1.60;1.30;;;6.40;98.20;;;;;;5081853;28;20481;-78
2024/01/23 04:49:30;;;;;;;1.63;1.30;;;6.40;98.20;;;;;;5099876;28;20463;-78
2024/01/23 04:51:57;;;;;;;1.60;1.30;;;6.40;98.20;;;;;;5083759;28;20854;-78
2024/01/23 04:54:24;;;;;;;1.63;1.40;;;6.40;98.20;;;;;;5099257;28;20459;-78
2024/01/23 04:56:51;;;;;;;1.60;1.30;;;6.40;98.20;;;;;;5083992;28;20481;-78
2024/01/23 04:59:19;;;;;;;1.60;1.30;;;6.30;98.20;;;;;;5096313;28;20466;-78
2024/01/23 05:01:46;;;;;;;1.63;1.30;;;6.30;98.20;;;;;;5084655;28;21156;-78
2024/01/23 05:04:12;;;;;;;1.60;1.30;;;6.30;98.20;;;;;;5095648;28;20806;-77
2024/01/23 05:06:39;;;;;;;1.60;1.30;;;6.30;98.20;;;;;;5085489;28;20468;-78
2024/01/23 05:09:07;;;;;;;1.60;1.30;;;6.30;98.20;;;;;;5092709;28;20450;-78
2024/01/23 05:11:33;;;;;;;1.60;1.30;;;6.30;98.20;;;;;;5091311;28;21029;-78
2024/01/23 05:14:01;;;;;;;1.60;1.30;;;6.20;98.20;;;;;;5115804;27;20501;-78
2024/01/23 05:16:29;;;;;;;1.60;1.20;;;6.20;98.20;;;;;;5079769;28;20498;-78
2024/01/23 05:18:56;;;;;;;1.60;1.30;;;6.20;98.20;;;;;;5085840;28;20456;-78
2024/01/23 05:21:22;;;;;;;1.70;1.40;;;6.20;98.20;;;;;;5097889;27;20466;-79
2024/01/23 05:23:49;;;;;;;1.60;1.27;;;6.20;98.20;;;;;;5113024;27;20461;-78
2024/01/23 05:26:16;;;;;;;1.63;1.30;;;6.20;98.20;;;;;;5093718;28;20472;-79
2024/01/23 05:28:43;;;;;;;1.70;1.50;;;6.20;98.20;;;;;;5105974;27;20822;-79
2024/01/23 05:31:09;;;;;;;1.60;1.30;;;6.20;98.20;;;;;;5088566;28;20484;-78
2024/01/23 05:33:38;;;;;;;1.70;1.40;;;6.20;98.20;;;;;;5091076;28;20533;-78
2024/01/23 05:36:06;;;;;;;1.60;1.30;;;6.20;98.20;;;;;;5089859;28;20975;-77
2024/01/23 05:38:33;;;;;;;1.60;1.30;;;6.10;98.20;;;;;;5110617;27;20471;-78
2024/01/23 05:40:59;;;;;;;1.60;1.30;;;6.10;98.20;;;;;;5088504;28;20463;-79
2024/01/23 05:43:26;;;;;;;1.63;1.30;;;6.20;98.20;;;;;;5118814;27;20835;-78
2024/01/23 05:45:53;;;;;;;1.70;1.50;;;6.20;98.20;;;;;;5083959;28;20456;-78
2024/01/23 05:48:20;;;;;;;1.60;1.30;;;6.20;98.20;;;;;;5113053;27;20475;-78
2024/01/23 05:50:48;;;;;;;1.60;1.30;;;6.20;98.20;;;;;;5095774;28;20467;-78
2024/01/23 05:53:15;;;;;;;1.60;1.30;;;6.10;98.20;;;;;;5119843;27;20499;-78
2024/01/23 05:55:42;;;;;;;1.60;1.30;;;6.10;98.20;;;;;;5106064;28;20563;-78
2024/01/23 05:58:09;;;;;;;1.70;1.40;;;6.10;98.20;;;;;;5094164;28;20494;-77
2024/01/23 06:00:36;;;;;;;1.60;1.30;;;6.10;98.20;;;;;;5098341;28;20892;-79
2024/01/23 06:03:03;;;;;;;1.60;1.40;;;6.10;98.20;;;;;;5090299;28;20830;-78
2024/01/23 06:05:30;;;;;;;1.70;1.43;;;6.00;98.20;;;;;;5095664;28;20723;-79
2024/01/23 06:07:58;;;;;;;1.63;1.30;;;6.00;98.20;;;;;;5074758;28;20886;-79
2024/01/23 06:10:26;;;;;;;1.60;1.27;;;6.00;98.20;;;;;;5099994;28;20542;-79
2024/01/23 06:12:53;;;;;;;1.60;1.30;;;6.10;98.20;;;;;;5101086;27;20489;-80
2024/01/23 06:15:20;;;;;;;1.70;1.40;;;6.10;98.20;;;;;;5096730;28;20493;-79
2024/01/23 06:17:46;;;;;;;1.70;1.40;;;6.10;98.20;;;;;;5101015;27;20470;-79
2024/01/23 06:20:24;;;;;;;1.60;1.30;;;6.10;98.20;;;;;;5161577;22;20448;-81
2024/01/23 06:26:17;;;;;;;1.70;1.30;;;6.00;98.20;;;;;;5088168;28;20540;-81
2024/01/23 06:28:56;;;;;;;1.60;1.30;;;6.00;98.20;;;;;;5103719;28;20463;-83
2024/01/23 06:31:28;;;;;;;1.60;1.20;;;6.00;98.20;;;;;;5113517;28;20486;-84
2024/01/23 06:34:01;;;;;;;1.60;1.30;;;6.00;98.20;;;;;;5123887;28;20910;-82
2024/01/23 06:36:49;;;;;;;1.60;1.30;;;6.00;98.20;;;;;;5118491;28;20519;-83
2024/01/23 06:39:18;;;;;;;1.70;1.43;;;5.90;98.20;;;;;;5133790;28;21080;-82
2024/01/23 06:41:57;;;;;;;1.60;1.30;;;5.90;98.20;;;;;;5111125;28;20486;-87
2024/01/23 06:44:46;;;;;;;1.60;1.30;;;5.90;98.20;;;;;;5133560;28;20454;-84
2024/01/23 06:47:12;;;;;;;1.60;1.30;;;5.90;98.20;;;;;;5109579;28;20521;-84
2024/01/23 06:52:33;;;;;;;1.60;1.30;;;5.90;98.20;;;;;;5106134;28;21101;-80
2024/01/23 06:55:33;;;;;;;1.70;1.60;;;5.80;98.20;;;;;;5127188;28;20452;-84
2024/01/23 06:58:41;;;;;;;1.60;1.40;;;5.80;98.20;;;;;;5100033;28;20566;-87
2024/01/23 07:01:35;;;;;;;1.60;1.30;;;5.80;98.20;;;;;;5112858;28;21121;-81
2024/01/23 07:14:18;;;;;;;1.70;1.40;;;5.70;98.20;;;;;;5395371;22;20526;-83
2024/01/23 07:16:47;;;;;;;1.70;1.50;;;5.70;98.20;;;;;;5098499;28;20471;-85
2024/01/23 07:19:23;;;;;;;1.70;1.43;;;5.70;98.20;;;;;;5111698;28;20531;-85
2024/01/23 07:22:30;;;;;;;1.60;1.30;;;5.70;98.20;;;;;;5125441;27;20570;-85
2024/01/23 07:25:16;;;;;;;1.60;1.30;;;5.70;98.20;;;;;;5132890;27;20454;-84
2024/01/23 07:28:03;;;;;;;1.67;1.30;;;5.70;98.20;;;;;;5123161;27;20494;-83
2024/01/23 07:31:33;;;;;;;;;;;;;;;;;;;;;
2024/01/23 07:34:42;;;;;;;1.70;1.50;;;5.70;98.20;;;;;;4968068;28;20679;-83
2024/01/23 07:39:29;;;;;;;;;;;;;;;;;;;;;
2024/01/23 07:42:19;;;;;;;1.63;1.30;;;5.70;98.20;;;;;;4900278;28;20485;-81
2024/01/23 07:44:49;;;;;;;1.60;1.40;;;5.80;98.20;;;;;;4984795;28;20462;-83
2024/01/23 07:57:55;;;;;;;1.70;1.40;;;5.70;98.20;;;;;;4940725;28;20520;-83
2024/01/23 08:00:46;;;;;;;1.70;1.50;;;5.70;98.20;;;;;;5064180;28;20688;-83
2024/01/23 08:06:54;;;;;;;1.60;1.40;;;5.80;98.20;;;;;;5029572;28;20487;-82
2024/01/23 08:09:21;;;;;;;1.60;1.30;;;5.80;98.20;;;;;;5118351;27;20824;-82
2024/01/23 08:15:06;;;;;;;3.20;3.00;;;5.90;98.20;;;;;;5123758;27;20568;-83
2024/01/23 08:17:42;;;;;;;1.67;1.30;;;6.00;98.20;;;;;;5103208;27;20468;-83
2024/01/23 08:20:27;;;;;;;1.60;1.30;;;6.00;98.20;;;;;;5126089;27;20489;-84
2024/01/23 08:23:09;;;;;;;1.67;1.33;;;6.10;98.20;;;;;;5120473;27;20548;-85
2024/01/23 08:25:38;;;;;;;1.70;1.40;;;6.20;98.20;;;;;;5134041;27;20518;-85
2024/01/23 08:28:11;;;;;;;1.67;1.40;;;6.20;98.20;;;;;;5116783;27;20518;-82
2024/01/23 08:30:38;;;;;;;1.70;1.40;;;6.30;98.20;;;;;;5134789;27;20487;-84
2024/01/23 08:33:08;;;;;;;1.70;1.40;;;6.30;98.20;;;;;;5117403;27;21080;-84
2024/01/23 08:35:40;;;;;;;1.70;1.50;;;6.40;98.20;;;;;;5130271;27;20447;-84
2024/01/23 08:38:08;;;;;;;1.60;1.30;;;6.40;98.20;;;;;;5088483;27;20603;-84
2024/01/23 08:40:37;;;;;;;1.60;1.30;;;6.50;98.20;;;;;;5130543;27;20475;-85
2024/01/23 08:43:07;;;;;;;1.70;1.40;;;6.50;98.20;;;;;;5120730;27;20478;-85
2024/01/23 08:45:34;;;;;;;1.60;1.30;;;6.60;98.20;;;;;;5135346;27;20954;-83
2024/01/23 08:51:12;;;;;;;1.60;1.40;;;6.70;98.20;;;;;;5106506;27;20490;-85
2024/01/23 08:53:52;;;;;;;1.67;1.50;;;6.70;98.20;;;;;;5127235;27;20459;-84
2024/01/23 08:56:20;;;;;;;2.70;2.50;;;6.80;98.20;;;;;;5100376;27;20483;-83
2024/01/23 08:59:14;;;;;;;1.70;1.57;;;6.90;98.20;;;;;;5129032;27;20562;-84
2024/01/23 09:02:00;;;;;;;1.60;1.20;;;6.90;98.20;;;;;;5106599;27;21011;-82
2024/01/23 09:04:47;;;;;;;1.63;1.40;;;7.00;98.20;;;;;;5121484;27;20455;-84
2024/01/23 09:07:31;;;;;;;1.60;1.30;;;7.10;98.20;;;;;;5115885;27;20470;-85
2024/01/23 09:10:07;;;;;;;1.67;1.40;;;7.10;98.20;;;;;;5134294;27;20586;-85
2024/01/23 09:12:54;;;;;;;1.60;1.30;;;7.10;98.20;;;;;;5116152;27;20523;-86
2024/01/23 09:15:45;;;;;;;1.60;1.20;;;7.10;98.20;;;;;;5127220;27;20462;-85
2024/01/23 09:18:23;;;;;;;1.60;1.30;;;7.20;98.20;;;;;;5025718;28;20482;-83
2024/01/23 09:20:53;;;;;;;1.60;1.20;;;7.20;98.20;;;;;;5117733;27;20478;-84
2024/01/23 09:23:23;;;;;;;1.60;1.20;;;7.30;98.20;;;;;;5131328;27;20461;-82
2024/01/23 09:25:50;;;;;;;1.60;1.20;;;7.30;98.20;;;;;;5133882;27;20459;-81
2024/01/23 09:28:17;;;;;;;1.60;1.30;;;7.40;98.20;;;;;;5123710;27;20459;-81
2024/01/23 09:30:44;;;;;;;4.90;2.70;;;7.50;98.20;;;;;;5142762;27;20511;-85
2024/01/23 09:33:11;;;;;;;1.60;1.20;;;7.50;98.20;;;;;;5129963;27;20496;-81
2024/01/23 09:35:38;;;;;;;1.60;1.30;;;7.60;98.20;;;;;;5136556;27;20934;-84
2024/01/23 09:38:21;;;;;;;1.70;1.40;;;7.60;98.20;;;;;;5106562;27;20481;-81
2024/01/23 09:40:51;;;;;;;1.60;1.20;;;7.70;98.20;;;;;;5124809;27;20479;-84
2024/01/23 09:43:21;;;;;;;1.63;1.30;;;7.80;98.20;;;;;;5133829;27;20794;-83
2024/01/23 09:45:49;;;;;;;1.60;1.20;;;7.80;98.20;;;;;;5130346;27;20513;-82
2024/01/23 09:48:16;;;;;;;1.90;1.70;;;7.90;98.20;;;;;;5135198;27;20459;-81
2024/01/23 09:50:45;;;;;;;1.63;1.30;;;8.00;98.20;;;;;;5126034;27;20471;-81
2024/01/23 09:53:13;;;;;;;1.60;1.17;;;8.00;98.20;;;;;;5105003;27;20468;-86
2024/01/23 09:55:41;;;;;;;1.60;1.20;;;8.10;98.20;;;;;;5124177;27;20536;-81
2024/01/23 09:58:10;;;;;;;1.60;1.20;;;8.10;98.20;;;;;;5124751;27;20478;-84
2024/01/23 10:00:37;;;;;;;1.60;1.27;;;8.10;98.20;;;;;;5125445;27;20510;-85
2024/01/23 10:03:07;;;;;;;1.60;1.23;;;8.20;98.20;;;;;;5119610;27;20471;-83
2024/01/23 10:05:35;;;;;;;1.60;1.20;;;8.20;98.20;;;;;;5133203;27;20833;-81
2024/01/23 10:08:02;;;;;;;1.60;1.20;;;8.30;98.20;;;;;;5120440;27;20474;-82
2024/01/23 10:10:30;;;;;;;1.70;1.40;;;8.30;98.20;;;;;;5120738;27;20481;-82
2024/01/23 10:12:59;;;;;;;1.60;1.30;;;8.40;98.20;;;;;;5090698;28;20468;-81
2024/01/23 10:15:26;;;;;;;1.60;1.20;;;8.50;98.20;;;;;;5108881;28;21050;-82
2024/01/23 10:17:53;;;;;;;1.60;1.10;;;8.60;98.20;;;;;;5089880;28;20718;-81
2024/01/23 10:20:21;;;;;;;1.60;1.20;;;8.70;98.20;;;;;;5115457;28;20492;-83
2024/01/23 10:22:48;;;;;;;1.60;1.20;;;8.80;98.20;;;;;;5101257;28;20510;-81
2024/01/23 10:25:20;;;;;;;1.60;1.20;;;8.80;98.20;;;;;;5107976;28;20532;-80
2024/01/23 10:27:51;;;;;;;1.60;1.17;;;8.80;98.20;;;;;;5093124;28;20480;-82
2024/01/23 10:30:20;;;;;;;1.70;1.57;;;8.90;98.20;;;;;;5114741;28;20474;-82
2024/01/23 10:32:47;;;;;;;1.60;1.23;;;8.90;98.20;;;;;;5098576;28;20479;-80
2024/01/23 10:35:14;;;;;;;1.60;1.13;;;8.90;98.20;;;;;;5105374;28;20504;-82
2024/01/23 10:37:42;;;;;;;1.60;1.30;;;8.90;98.20;;;;;;5102426;28;20543;-82
2024/01/23 10:40:13;;;;;;;1.60;1.30;;;9.00;98.20;;;;;;5114899;28;20904;-81
2024/01/23 10:42:40;;;;;;;1.60;1.20;;;9.10;98.20;;;;;;5113535;28;21068;-82
2024/01/23 10:45:16;;;;;;;1.70;1.50;;;9.10;98.20;;;;;;5126745;28;20485;-82
2024/01/23 10:47:45;;;;;;;1.60;1.20;;;9.10;98.20;;;;;;5122185;28;20476;-81
2024/01/23 10:54:38;;;;;;;1.60;1.10;;;9.20;98.20;;;;;;5018358;28;20478;-79
2024/01/23 11:01:10;;;;;;;1.60;1.20;;;9.30;98.20;;;;;;5036356;28;20496;-81
2024/01/23 11:04:18;;;;;;;1.60;1.20;;;9.30;98.20;;;;;;5076123;28;20471;-81
2024/01/23 11:07:36;;;;;;;1.60;1.20;;;9.20;98.20;;;;;;5084046;28;20479;-80
2024/01/23 11:12:50;;;;;;;1.60;1.20;;;9.10;98.20;;;;;;5165344;22;20540;-80
2024/01/23 11:15:17;;;;;;;1.53;1.10;;;9.10;98.20;;;;;;5123784;28;20471;-82
2024/01/23 11:20:38;;;;;;;1.60;1.20;;;9.20;98.20;;;;;;5123247;27;20474;-82
2024/01/23 11:23:20;;;;;;;1.60;1.10;;;9.40;98.20;;;;;;5114716;27;20479;-83
2024/01/23 11:26:23;;;;;;;1.60;1.10;;;9.50;98.20;;;;;;5140049;27;20482;-81
2024/01/23 11:28:52;;;;;;;1.60;1.10;;;9.60;98.20;;;;;;5117317;27;20467;-80
2024/01/23 11:31:21;;;;;;;1.60;1.20;;;9.60;98.20;;;;;;5121749;27;20466;-81
2024/01/23 11:33:51;;;;;;;1.60;1.23;;;9.70;98.20;;;;;;5138004;27;20868;-81
2024/01/23 11:36:24;;;;;;;1.60;1.10;;;9.70;98.20;;;;;;5129989;27;20716;-81
2024/01/23 11:38:54;;;;;;;1.60;1.20;;;9.70;98.20;;;;;;5121164;27;20483;-82
2024/01/23 11:41:23;;;;;;;1.60;1.10;;;9.70;98.20;;;;;;5116654;27;20512;-80
2024/01/23 11:43:57;;;;;;;1.60;1.20;;;9.70;98.20;;;;;;5120589;27;21017;-83
2024/01/23 11:46:41;;;;;;;1.60;1.10;;;9.70;98.20;;;;;;5117475;27;20582;-81
2024/01/23 11:49:08;;;;;;;3.37;3.17;;;9.70;98.20;;;;;;5119643;27;20558;-82
2024/01/23 11:51:41;;;;;;;1.60;1.10;;;9.80;98.20;;;;;;5126036;27;20480;-84
2024/01/23 11:54:13;;;;;;;1.60;1.17;;;9.80;98.20;;;;;;5140665;27;20463;-82
2024/01/23 11:56:49;;;;;;;1.60;1.20;;;9.80;98.20;;;;;;5120419;27;20483;-80
2024/01/23 11:59:31;;;;;;;1.60;1.10;;;9.80;98.20;;;;;;5129069;27;20455;-83
2024/01/23 12:01:58;;;;;;;1.60;1.20;;;9.80;98.20;;;;;;5114631;27;20488;-84
2024/01/23 12:04:25;;;;;;;1.60;1.20;;;9.80;98.20;;;;;;5126302;27;20946;-82
2024/01/23 12:06:53;;;;;;;1.60;1.00;;;9.90;98.20;;;;;;5117736;27;20566;-83
2024/01/23 12:09:20;;;;;;;1.60;1.10;;;9.90;98.20;;;;;;5129724;27;20487;-84
2024/01/23 12:11:50;;;;;;;1.60;1.13;;;9.90;98.20;;;;;;5126270;27;20519;-82
2024/01/23 12:14:17;;;;;;;1.60;1.10;;;9.90;98.20;;;;;;5132932;27;20461;-84
2024/01/23 12:16:44;;;;;;;1.60;1.10;;;9.90;98.20;;;;;;5129501;27;20474;-82
2024/01/23 12:19:14;;;;;;;1.60;1.10;;;9.90;98.20;;;;;;5127896;27;20558;-84
2024/01/23 12:21:41;;;;;;;1.60;1.20;;;10.00;98.20;;;;;;5113447;27;20823;-81
2024/01/23 12:24:09;;;;;;;1.60;1.20;;;10.00;98.20;;;;;;5121844;27;21001;-80
2024/01/23 12:26:38;;;;;;;1.60;1.20;;;10.00;98.20;;;;;;5127310;27;20474;-82
2024/01/23 12:29:10;;;;;;;1.60;1.20;;;9.90;98.20;;;;;;5128114;27;20583;-79
2024/01/23 12:31:37;;;;;;;1.60;1.10;;;9.90;98.20;;;;;;5115526;27;20506;-82
2024/01/23 12:34:04;;;;;;;1.60;1.10;;;9.90;98.20;;;;;;5125143;27;20477;-83
2024/01/23 12:36:31;;;;;;;1.60;1.40;;;9.90;98.20;;;;;;5122366;27;20474;-82
2024/01/23 12:38:58;;;;;;;1.57;1.00;;;9.90;98.20;;;;;;5132251;27;20490;-81
2024/01/23 12:41:26;;;;;;;1.60;1.10;;;9.90;98.20;;;;;;5122710;27;20534;-81
2024/01/23 12:43:53;;;;;;;1.60;1.20;;;9.90;98.20;;;;;;5131462;27;20571;-82
2024/01/23 12:46:20;;;;;;;1.60;1.30;;;9.90;98.20;;;;;;5114581;27;20503;-80
2024/01/23 12:48:47;;;;;;;1.60;1.10;;;9.90;98.20;;;;;;5119488;27;20466;-83
2024/01/23 12:51:16;;;;;;;1.60;1.20;;;9.80;98.20;;;;;;5123222;27;20505;-83
2024/01/23 12:53:46;;;;;;;1.60;1.23;;;9.80;98.20;;;;;;5130562;27;20519;-78
2024/01/23 12:56:12;;;;;;;1.60;1.20;;;9.80;98.20;;;;;;5117583;27;20475;-83
2024/01/23 12:58:45;;;;;;;1.57;1.10;;;9.80;98.20;;;;;;5135077;27;20542;-82
2024/01/23 13:01:12;;;;;;;1.60;1.20;;;9.80;98.20;;;;;;5119160;27;20523;-83
2024/01/23 13:03:39;;;;;;;1.57;1.10;;;9.80;98.20;;;;;;5111661;27;20479;-81
2024/01/23 13:06:06;;;;;;;1.60;1.10;;;9.80;98.20;;;;;;5119741;27;21515;-79
2024/01/23 13:08:33;;;;;;;1.60;1.20;;;9.80;98.20;;;;;;5125850;27;20519;-83
2024/01/23 13:11:00;;;;;;;1.60;1.30;;;9.80;98.20;;;;;;5124524;27;20482;-80
2024/01/23 13:13:26;;;;;;;1.60;1.20;;;9.80;98.20;;;;;;5136769;27;20961;-82
2024/01/23 13:15:55;;;;;;;1.60;1.10;;;9.80;98.20;;;;;;5125354;27;20459;-82
2024/01/23 13:18:22;;;;;;;1.57;1.10;;;9.80;98.20;;;;;;5131626;27;20459;-80
2024/01/23 13:20:49;;;;;;;1.60;1.10;;;9.80;98.20;;;;;;5119997;27;20475;-83
2024/01/23 13:23:17;;;;;;;1.60;1.20;;;9.80;98.20;;;;;;5131052;27;20536;-82
2024/01/23 13:25:45;;;;;;;1.60;1.13;;;9.80;98.20;;;;;;5131297;27;20491;-83
2024/01/23 13:28:11;;;;;;;1.60;1.10;;;9.80;98.20;;;;;;5099873;27;20557;-83
2024/01/23 13:30:38;;;;;;;1.53;1.10;;;9.80;98.20;;;;;;5133533;27;20494;-82
2024/01/23 13:33:09;;;;;;;1.60;1.40;;;9.80;98.20;;;;;;5099086;27;20502;-82
2024/01/23 13:35:36;;;;;;;1.60;1.10;;;9.70;98.20;;;;;;5140243;27;20458;-82
2024/01/23 13:38:05;;;;;;;1.60;1.30;;;9.80;98.20;;;;;;5116107;27;20547;-83
2024/01/23 13:40:32;;;;;;;1.60;1.20;;;9.70;98.20;;;;;;5135410;27;20871;-82
2024/01/23 13:43:11;;;;;;;1.60;1.20;;;9.70;98.20;;;;;;5098113;28;20472;-82
2024/01/23 13:45:41;;;;;;;1.60;1.20;;;9.70;98.20;;;;;;5140009;27;20470;-82
2024/01/23 13:48:20;;;;;;;1.60;1.10;;;9.80;98.20;;;;;;5090168;28;20471;-81
2024/01/23 13:50:47;;;;;;;1.60;1.10;;;9.80;98.20;;;;;;5122258;27;20486;-82
2024/01/23 13:53:14;;;;;;;1.60;1.10;;;9.80;98.20;;;;;;5130044;27;20471;-81
2024/01/23 13:55:41;;;;;;;1.60;1.10;;;9.80;98.20;;;;;;5129458;27;20463;-82
2024/01/23 13:58:08;;;;;;;1.60;1.20;;;9.90;98.20;;;;;;5120530;27;20725;-82
2024/01/23 14:00:35;;;;;;;1.60;1.30;;;9.90;98.20;;;;;;5133271;27;20483;-83
2024/01/23 14:03:02;;;;;;;1.60;1.20;;;9.90;98.20;;;;;;5119888;27;20478;-83
2024/01/23 14:05:30;;;;;;;1.60;1.17;;;9.90;98.20;;;;;;5124058;27;20470;-81
2024/01/23 14:07:57;;;;;;;1.60;1.20;;;9.90;98.20;;;;;;5101764;28;20995;-82
2024/01/23 14:10:24;;;;;;;1.60;1.10;;;9.90;98.20;;;;;;5137872;27;20515;-81